Skip Navigation Links
NOAA logo - Click to go to the NOAA homepage
NOAA's National Weather Service
Alaska Aviation Weather Unit
  NWS logo - Click to go to the NWS homepage
Left Navbar Graphic     12 AKDT = 20 GMT

   
NOAA is celebrating 200 years of science, service, and stewardship. Visit the NOAA 200th celebration Web site to learn more.
USA.gov is the U.S. Government's official Web portal to all Federal, state and local government Web resources and services.
Facebook
NWS on Facebook

Important Change Regarding the AAWU Web Presence

 

Over the last several months, the AAWU has been working to navigate its webpages to a nationally supported server. Security, as well as other needs, have necessitated the change.  We have been given an extension for the site changeover while we diligently work at addressing feedback received. As of July 14, 2017, aawu.arh.noaa.gov will be discontinued. The new AAWU web address is weather.gov/aawu. It is now live and will run in-parallel with the old site until it is discontinued on July 14, 2017. Please continue to send any feedback or questions regarding the new webpages to nws.ar.aawu.webauthors@noaa.gov.  Thank you for your patience during this time of transition.
AAWU Home :: Display TAF Add Bookmark
METAR PAJZ 251456Z AUTO 17007KT 6SM -RA BR OVC004 10/09 A3004 RMK AO2
     RAB31 CIG 004V009 SLP179 P0000 60000 T01000094 58006 $=

METAR PAJZ 251556Z AUTO 17007KT 5SM -RA BR OVC004 11/10 A3003 RMK AO2
     SLP177 P0000 T01060100 $=

METAR PAJZ 251656Z AUTO 17008KT 1 1/2SM BR OVC004 11/10 A3002 RMK AO2
     RAE10 SLP174 P0000 T01060100 $=

SPECI PAJZ 251705Z AUTO 18008KT 5SM -RA BR OVC004 11/10 A3002 RMK AO2
     RAB04 P0000 $=

METAR PAJZ 251756Z AUTO 17007KT 5SM -RA BR OVC004 11/11 A3001 RMK AO2
     RAB04 CIG 003V007 SLP171 P0002 60002 T01110106 10111 20100
     58005 $=

PAJZ 251819Z AUTO 17008KT 5SM -RA BR OVC006 11/11 A3001 RMK AO2
     CIG 004V010 P0002 $=

METAR PAJZ 251856Z AUTO 19009KT 8SM -RA BKN008 OVC016 12/11 A3000
 RMK AO2 CIG 004V011 SLP167 P0003 T01220111 $=

SPECI PAJZ 251930Z AUTO 19007KT 6SM -RA BR SCT008 OVC024 12/11 A3000 RMK
     AO2 P0002 $=

SPECI PAJZ 251939Z AUTO 18009KT 9SM -RA BKN008 OVC024 12/11 A3000
 RMK AO2 P0003 $=

METAR PAJZ 251956Z AUTO 19009KT 8SM -RA BKN008 OVC022 12/11 A3000 RMK
     AO2 CIG 006V013 SLP164 P0003 T01220111 $=

SPECI PAJZ 252017Z AUTO 18010KT 7SM -RA BKN010 OVC013 12/11 A2999 RMK
     AO2 CIG 007V011 P0000 $=

PAJZ 252037Z AUTO 19011KT 9SM -RA SCT008 OVC015 12/11 A2999 RMK
     AO2 P0000 $=


NOAA's National Weather Service
Alaska Aviation Weather Unit
6930 Sand Lake Road
Anchorage, AK 99502-1845
Disclaimer
Credits
Glossary
Privacy Policy
About Us
Career Opportunities
Contact AAWU Internet Services Site last modified: April, 17th 2012